Terminal Aerodrome Forecast
Issued by NWS

Home | Current Version | Previous Version | Text Only | Print | Product List | Glossary On
Versions: 1 2 3 4 5 6 7 8 9 10 11 12
000
FTUS43 KOAX 241120
TAFSNY
TAF
KSNY 241120Z 2412/2512 26010G22KT P6SM BKN150
     FM241800 32012G22KT P6SM SCT150
     FM242300 18008KT P6SM SCT150
     FM250400 26012KT P6SM SCT150=

USA.gov is the U.S. government's official web portal to all federal, state and local government web resources and services.